sensor_id;sensor_type;location;lat;lon;timestamp;pressure;altitude;pressure_sealevel;temperature;humidity
74218;BME280;62579;47.288;18.646;2022-09-06T00:01:10;100425.34;;;18.06;71.41
74218;BME280;62579;47.288;18.646;2022-09-06T00:03:36;100419.66;;;17.90;71.91
74218;BME280;62579;47.288;18.646;2022-09-06T00:06:10;100423.81;;;17.71;72.60
74218;BME280;62579;47.288;18.646;2022-09-06T00:08:36;100429.87;;;17.69;72.50
74218;BME280;62579;47.288;18.646;2022-09-06T00:11:02;100423.53;;;17.61;72.92
74218;BME280;62579;47.288;18.646;2022-09-06T00:13:27;100421.72;;;17.64;72.73
74218;BME280;62579;47.288;18.646;2022-09-06T00:15:53;100421.59;;;17.56;73.18
74218;BME280;62579;47.288;18.646;2022-09-06T00:18:18;100417.38;;;17.68;72.23
74218;BME280;62579;47.288;18.646;2022-09-06T00:20:43;100416.72;;;17.75;71.53
74218;BME280;62579;47.288;18.646;2022-09-06T00:23:09;100413.53;;;17.84;71.18
74218;BME280;62579;47.288;18.646;2022-09-06T00:25:34;100422.34;;;17.70;72.07
74218;BME280;62579;47.288;18.646;2022-09-06T00:28:03;100419.09;;;17.58;72.36
74218;BME280;62579;47.288;18.646;2022-09-06T00:30:30;100416.22;;;17.51;72.51
74218;BME280;62579;47.288;18.646;2022-09-06T00:32:56;100417.25;;;17.48;72.58
74218;BME280;62579;47.288;18.646;2022-09-06T00:35:22;100404.97;;;17.35;72.76
74218;BME280;62579;47.288;18.646;2022-09-06T00:37:58;100414.28;;;17.32;72.76
74218;BME280;62579;47.288;18.646;2022-09-06T00:40:24;100404.56;;;17.31;72.65
74218;BME280;62579;47.288;18.646;2022-09-06T00:42:49;100404.44;;;17.24;73.74
74218;BME280;62579;47.288;18.646;2022-09-06T00:45:15;100409.13;;;17.29;73.25
74218;BME280;62579;47.288;18.646;2022-09-06T00:47:41;100406.25;;;17.34;72.82
74218;BME280;62579;47.288;18.646;2022-09-06T00:50:09;100403.06;;;17.30;72.85
74218;BME280;62579;47.288;18.646;2022-09-06T00:52:36;100402.78;;;17.21;73.37
74218;BME280;62579;47.288;18.646;2022-09-06T00:55:03;100401.91;;;17.13;73.53
74218;BME280;62579;47.288;18.646;2022-09-06T00:57:29;100406.66;;;17.12;73.36
74218;BME280;62579;47.288;18.646;2022-09-06T00:59:56;100408.88;;;17.14;73.45
74218;BME280;62579;47.288;18.646;2022-09-06T01:02:23;100405.81;;;17.04;73.63
74218;BME280;62579;47.288;18.646;2022-09-06T01:04:49;100404.78;;;17.07;73.50
74218;BME280;62579;47.288;18.646;2022-09-06T01:07:47;100409.53;;;17.07;73.34
74218;BME280;62579;47.288;18.646;2022-09-06T01:10:22;100403.25;;;16.93;74.97
74218;BME280;62579;47.288;18.646;2022-09-06T01:21:48;100399.00;;;16.79;74.83
74218;BME280;62579;47.288;18.646;2022-09-06T01:35:17;100414.41;;;16.69;74.73
74218;BME280;62579;47.288;18.646;2022-09-06T01:37:44;100409.94;;;16.53;75.32
74218;BME280;62579;47.288;18.646;2022-09-06T01:40:10;100408.69;;;16.54;75.22
74218;BME280;62579;47.288;18.646;2022-09-06T01:42:36;100402.50;;;16.48;75.31
74218;BME280;62579;47.288;18.646;2022-09-06T01:45:10;100403.84;;;16.41;75.59
74218;BME280;62579;47.288;18.646;2022-09-06T01:50:31;100405.69;;;16.33;75.70
74218;BME280;62579;47.288;18.646;2022-09-06T01:55:42;100409.75;;;16.13;76.40
74218;BME280;62579;47.288;18.646;2022-09-06T02:01:27;100406.19;;;16.18;76.33
74218;BME280;62579;47.288;18.646;2022-09-06T02:04:28;100405.28;;;16.10;76.46
74218;BME280;62579;47.288;18.646;2022-09-06T02:07:04;100404.84;;;15.88;77.37
74218;BME280;62579;47.288;18.646;2022-09-06T02:09:35;100399.66;;;15.84;77.58
74218;BME280;62579;47.288;18.646;2022-09-06T02:12:02;100399.22;;;15.80;77.74
74218;BME280;62579;47.288;18.646;2022-09-06T02:14:34;100399.22;;;15.80;77.72
74218;BME280;62579;47.288;18.646;2022-09-06T02:17:01;100396.19;;;15.84;77.58
74218;BME280;62579;47.288;18.646;2022-09-06T02:19:34;100399.44;;;15.82;77.94
74218;BME280;62579;47.288;18.646;2022-09-06T02:22:07;100396.09;;;15.89;77.61
74218;BME280;62579;47.288;18.646;2022-09-06T02:24:35;100388.72;;;15.79;78.26
74218;BME280;62579;47.288;18.646;2022-09-06T02:27:02;100399.72;;;15.79;78.19
74218;BME280;62579;47.288;18.646;2022-09-06T02:29:28;100391.56;;;15.92;77.09
74218;BME280;62579;47.288;18.646;2022-09-06T02:34:36;100394.75;;;15.96;77.04
74218;BME280;62579;47.288;18.646;2022-09-06T02:39:31;100395.44;;;16.02;76.66
74218;BME280;62579;47.288;18.646;2022-09-06T02:41:56;100388.75;;;15.97;76.39
74218;BME280;62579;47.288;18.646;2022-09-06T02:44:22;100392.16;;;16.03;76.18
74218;BME280;62579;47.288;18.646;2022-09-06T02:46:48;100391.50;;;15.97;76.47
74218;BME280;62579;47.288;18.646;2022-09-06T02:49:17;100399.34;;;15.88;77.24
74218;BME280;62579;47.288;18.646;2022-09-06T02:51:42;100394.91;;;15.85;77.10
74218;BME280;62579;47.288;18.646;2022-09-06T02:54:08;100404.62;;;15.86;76.95
74218;BME280;62579;47.288;18.646;2022-09-06T02:56:33;100398.84;;;15.89;76.73
74218;BME280;62579;47.288;18.646;2022-09-06T02:59:00;100396.09;;;15.89;77.01
74218;BME280;62579;47.288;18.646;2022-09-06T03:01:26;100397.06;;;15.92;77.04
74218;BME280;62579;47.288;18.646;2022-09-06T03:03:51;100391.12;;;15.88;77.22
74218;BME280;62579;47.288;18.646;2022-09-06T03:06:16;100382.13;;;15.87;77.10
74218;BME280;62579;47.288;18.646;2022-09-06T03:08:42;100383.34;;;15.92;76.85
74218;BME280;62579;47.288;18.646;2022-09-06T03:11:07;100384.53;;;15.96;76.76
74218;BME280;62579;47.288;18.646;2022-09-06T03:13:33;100392.28;;;15.92;76.76
74218;BME280;62579;47.288;18.646;2022-09-06T03:15:59;100394.22;;;15.79;77.31
74218;BME280;62579;47.288;18.646;2022-09-06T03:18:25;100387.06;;;15.76;78.02
74218;BME280;62579;47.288;18.646;2022-09-06T03:20:52;100390.91;;;15.67;78.01
74218;BME280;62579;47.288;18.646;2022-09-06T03:23:19;100396.97;;;15.79;77.26
74218;BME280;62579;47.288;18.646;2022-09-06T03:25:45;100391.41;;;15.84;77.33
74218;BME280;62579;47.288;18.646;2022-09-06T03:28:11;100398.47;;;15.80;77.42
74218;BME280;62579;47.288;18.646;2022-09-06T03:30:37;100390.00;;;15.78;77.22
74218;BME280;62579;47.288;18.646;2022-09-06T03:33:03;100388.38;;;15.69;76.72
74218;BME280;62579;47.288;18.646;2022-09-06T03:35:28;100390.50;;;15.76;76.27
74218;BME280;62579;47.288;18.646;2022-09-06T03:37:54;100385.19;;;15.84;76.12
74218;BME280;62579;47.288;18.646;2022-09-06T03:40:19;100385.41;;;15.86;76.52
74218;BME280;62579;47.288;18.646;2022-09-06T03:42:44;100385.41;;;15.86;76.84
74218;BME280;62579;47.288;18.646;2022-09-06T03:45:10;100382.47;;;15.84;76.90
74218;BME280;62579;47.288;18.646;2022-09-06T03:47:36;100390.22;;;15.80;77.04
74218;BME280;62579;47.288;18.646;2022-09-06T03:50:01;100386.53;;;15.77;77.04
74218;BME280;62579;47.288;18.646;2022-09-06T03:52:27;100402.03;;;15.75;77.14
74218;BME280;62579;47.288;18.646;2022-09-06T03:54:52;100398.03;;;15.76;77.05
74218;BME280;62579;47.288;18.646;2022-09-06T03:57:17;100395.34;;;15.70;77.07
74218;BME280;62579;47.288;18.646;2022-09-06T03:59:42;100388.53;;;15.77;76.48
74218;BME280;62579;47.288;18.646;2022-09-06T04:02:08;100389.19;;;15.83;76.46
74218;BME280;62579;47.288;18.646;2022-09-06T04:04:33;100382.66;;;15.86;76.69
74218;BME280;62579;47.288;18.646;2022-09-06T04:06:58;100388.16;;;15.86;76.27
74218;BME280;62579;47.288;18.646;2022-09-06T04:09:24;100386.88;;;15.87;76.36
74218;BME280;62579;47.288;18.646;2022-09-06T04:11:49;100388.44;;;15.82;76.85
74218;BME280;62579;47.288;18.646;2022-09-06T04:14:15;100392.75;;;15.78;76.94
74218;BME280;62579;47.288;18.646;2022-09-06T04:16:40;100390.22;;;15.80;76.77
74218;BME280;62579;47.288;18.646;2022-09-06T04:19:05;100379.53;;;15.76;76.30
74218;BME280;62579;47.288;18.646;2022-09-06T04:21:31;100383.19;;;15.84;75.72
74218;BME280;62579;47.288;18.646;2022-09-06T04:23:56;100387.62;;;15.87;76.21
74218;BME280;62579;47.288;18.646;2022-09-06T04:26:21;100396.59;;;15.88;76.67
74218;BME280;62579;47.288;18.646;2022-09-06T04:28:47;100401.66;;;15.84;76.71
74218;BME280;62579;47.288;18.646;2022-09-06T04:31:12;100393.25;;;15.76;76.91
74218;BME280;62579;47.288;18.646;2022-09-06T04:33:37;100400.03;;;15.75;76.82
74218;BME280;62579;47.288;18.646;2022-09-06T04:36:08;100401.00;;;15.78;76.77
74218;BME280;62579;47.288;18.646;2022-09-06T04:38:36;100396.00;;;15.76;77.20
74218;BME280;62579;47.288;18.646;2022-09-06T04:41:03;100399.81;;;15.73;77.00
74218;BME280;62579;47.288;18.646;2022-09-06T04:43:28;100399.28;;;15.75;76.89
74218;BME280;62579;47.288;18.646;2022-09-06T04:45:54;100396.31;;;15.73;77.21
74218;BME280;62579;47.288;18.646;2022-09-06T04:48:19;100395.28;;;15.76;78.21
74218;BME280;62579;47.288;18.646;2022-09-06T04:50:44;100393.88;;;15.88;77.22
74218;BME280;62579;47.288;18.646;2022-09-06T04:53:10;100394.97;;;15.98;76.63
74218;BME280;62579;47.288;18.646;2022-09-06T04:55:35;100390.38;;;16.06;76.37
74218;BME280;62579;47.288;18.646;2022-09-06T04:58:01;100391.03;;;16.12;76.43
74218;BME280;62579;47.288;18.646;2022-09-06T05:00:29;100380.94;;;16.20;76.84
74218;BME280;62579;47.288;18.646;2022-09-06T05:02:56;100383.22;;;16.35;76.49
74218;BME280;62579;47.288;18.646;2022-09-06T05:05:21;100384.00;;;16.48;75.87
74218;BME280;62579;47.288;18.646;2022-09-06T05:07:47;100389.31;;;16.59;74.94
74218;BME280;62579;47.288;18.646;2022-09-06T05:10:15;100395.38;;;16.71;74.43
74218;BME280;62579;47.288;18.646;2022-09-06T05:12:40;100401.44;;;16.83;73.65
74218;BME280;62579;47.288;18.646;2022-09-06T05:15:06;100403.16;;;16.86;73.34
74218;BME280;62579;47.288;18.646;2022-09-06T05:17:32;100405.25;;;16.93;72.72
74218;BME280;62579;47.288;18.646;2022-09-06T05:19:57;100394.81;;;17.04;71.96
74218;BME280;62579;47.288;18.646;2022-09-06T05:22:22;100393.22;;;17.22;71.73
74218;BME280;62579;47.288;18.646;2022-09-06T05:24:48;100400.63;;;17.27;70.71
74218;BME280;62579;47.288;18.646;2022-09-06T05:27:13;100399.06;;;17.18;70.96
74218;BME280;62579;47.288;18.646;2022-09-06T05:29:39;100406.13;;;17.40;70.57
74218;BME280;62579;47.288;18.646;2022-09-06T05:32:05;100401.62;;;17.56;69.97
74218;BME280;62579;47.288;18.646;2022-09-06T05:34:30;100406.47;;;17.50;69.62
74218;BME280;62579;47.288;18.646;2022-09-06T05:36:55;100392.28;;;17.72;69.57
74218;BME280;62579;47.288;18.646;2022-09-06T05:39:21;100388.47;;;17.75;69.17
74218;BME280;62579;47.288;18.646;2022-09-06T05:41:47;100391.53;;;17.71;69.06
74218;BME280;62579;47.288;18.646;2022-09-06T05:44:12;100393.44;;;17.76;69.29
74218;BME280;62579;47.288;18.646;2022-09-06T05:46:45;100395.66;;;17.65;68.25
74218;BME280;62579;47.288;18.646;2022-09-06T05:49:11;100394.50;;;17.73;68.70
74218;BME280;62579;47.288;18.646;2022-09-06T05:51:37;100390.41;;;18.00;68.38
74218;BME280;62579;47.288;18.646;2022-09-06T05:54:03;100390.91;;;18.12;68.72
74218;BME280;62579;47.288;18.646;2022-09-06T05:56:28;100394.06;;;18.16;68.36
74218;BME280;62579;47.288;18.646;2022-09-06T05:58:54;100398.81;;;18.16;69.04
74218;BME280;62579;47.288;18.646;2022-09-06T06:01:22;100390.38;;;18.34;68.37
74218;BME280;62579;47.288;18.646;2022-09-06T06:03:53;100395.44;;;18.43;67.54
74218;BME280;62579;47.288;18.646;2022-09-06T06:19:01;100394.69;;;18.84;63.90
74218;BME280;62579;47.288;18.646;2022-09-06T06:21:28;100395.09;;;18.88;63.50
74218;BME280;62579;47.288;18.646;2022-09-06T06:24:04;100395.31;;;18.90;63.01
74218;BME280;62579;47.288;18.646;2022-09-06T06:26:33;100396.34;;;18.80;63.60
74218;BME280;62579;47.288;18.646;2022-09-06T06:28:58;100401.06;;;19.00;62.98
74218;BME280;62579;47.288;18.646;2022-09-06T06:31:27;100404.75;;;19.02;63.55
74218;BME280;62579;47.288;18.646;2022-09-06T06:33:52;100409.09;;;19.18;63.79
74218;BME280;62579;47.288;18.646;2022-09-06T06:36:21;100401.53;;;19.40;63.31
74218;BME280;62579;47.288;18.646;2022-09-06T06:38:49;100407.66;;;19.53;62.20
74218;BME280;62579;47.288;18.646;2022-09-06T06:41:17;100410.88;;;19.65;61.39
74218;BME280;62579;47.288;18.646;2022-09-06T06:43:43;100414.72;;;19.62;61.44
74218;BME280;62579;47.288;18.646;2022-09-06T06:46:15;100411.47;;;19.78;61.86
74218;BME280;62579;47.288;18.646;2022-09-06T06:48:43;100414.41;;;19.73;61.12
74218;BME280;62579;47.288;18.646;2022-09-06T06:51:19;100413.19;;;19.97;61.81
74218;BME280;62579;47.288;18.646;2022-09-06T06:53:45;100413.94;;;20.05;60.71
74218;BME280;62579;47.288;18.646;2022-09-06T06:56:20;100418.75;;;20.12;59.90
74218;BME280;62579;47.288;18.646;2022-09-06T06:58:48;100415.63;;;20.08;60.49
74218;BME280;62579;47.288;18.646;2022-09-06T07:01:15;100420.97;;;20.13;59.86
74218;BME280;62579;47.288;18.646;2022-09-06T07:03:40;100430.37;;;20.10;59.87
74218;BME280;62579;47.288;18.646;2022-09-06T07:06:06;100422.34;;;20.27;60.36
74218;BME280;62579;47.288;18.646;2022-09-06T07:08:32;100428.41;;;20.33;59.02
74218;BME280;62579;47.288;18.646;2022-09-06T07:10:58;100427.13;;;20.34;59.06
74218;BME280;62579;47.288;18.646;2022-09-06T07:13:23;100427.91;;;20.50;58.90
74218;BME280;62579;47.288;18.646;2022-09-06T07:15:48;100419.97;;;20.69;59.10
74218;BME280;62579;47.288;18.646;2022-09-06T07:18:15;100430.50;;;20.78;59.13
74218;BME280;62579;47.288;18.646;2022-09-06T07:20:40;100417.03;;;20.98;58.27
74218;BME280;62579;47.288;18.646;2022-09-06T07:23:05;100420.53;;;21.06;59.06
74218;BME280;62579;47.288;18.646;2022-09-06T07:25:31;100428.31;;;20.92;57.16
74218;BME280;62579;47.288;18.646;2022-09-06T07:28:06;100413.53;;;20.97;59.13
74218;BME280;62579;47.288;18.646;2022-09-06T07:30:35;100417.75;;;20.98;57.46
74218;BME280;62579;47.288;18.646;2022-09-06T07:33:03;100413.53;;;20.97;58.60
74218;BME280;62579;47.288;18.646;2022-09-06T07:35:32;100414.47;;;21.07;58.64
74218;BME280;62579;47.288;18.646;2022-09-06T07:37:59;100415.00;;;21.06;57.09
74218;BME280;62579;47.288;18.646;2022-09-06T07:40:26;100411.34;;;21.11;58.38
74218;BME280;62579;47.288;18.646;2022-09-06T07:42:56;100417.78;;;21.13;59.04
74218;BME280;62579;47.288;18.646;2022-09-06T07:45:21;100416.47;;;21.29;58.29
74218;BME280;62579;47.288;18.646;2022-09-06T07:47:56;100422.91;;;21.39;57.29
74218;BME280;62579;47.288;18.646;2022-09-06T07:50:28;100419.94;;;21.45;58.60
74218;BME280;62579;47.288;18.646;2022-09-06T07:52:55;100414.62;;;21.24;58.03
74218;BME280;62579;47.288;18.646;2022-09-06T07:55:20;100408.28;;;21.46;57.45
74218;BME280;62579;47.288;18.646;2022-09-06T07:57:45;100416.66;;;21.79;57.51
74218;BME280;62579;47.288;18.646;2022-09-06T08:00:11;100412.41;;;21.85;57.09
74218;BME280;62579;47.288;18.646;2022-09-06T08:02:37;100412.38;;;21.93;58.52
74218;BME280;62579;47.288;18.646;2022-09-06T08:05:02;100408.81;;;22.07;56.13
74218;BME280;62579;47.288;18.646;2022-09-06T08:07:28;100410.19;;;22.24;57.08
74218;BME280;62579;47.288;18.646;2022-09-06T08:09:53;100415.53;;;22.22;56.66
74218;BME280;62579;47.288;18.646;2022-09-06T08:12:19;100413.56;;;22.14;56.05
74218;BME280;62579;47.288;18.646;2022-09-06T08:14:44;100415.47;;;22.37;55.22
74218;BME280;62579;47.288;18.646;2022-09-06T08:17:09;100409.97;;;22.29;55.54
74218;BME280;62579;47.288;18.646;2022-09-06T08:22:00;100409.59;;;22.57;55.39
74218;BME280;62579;47.288;18.646;2022-09-06T08:24:25;100408.38;;;22.43;55.31
74218;BME280;62579;47.288;18.646;2022-09-06T08:26:51;100398.81;;;22.69;55.51
74218;BME280;62579;47.288;18.646;2022-09-06T08:29:16;100410.28;;;22.65;54.64
74218;BME280;62579;47.288;18.646;2022-09-06T08:31:43;100397.16;;;22.66;54.09
74218;BME280;62579;47.288;18.646;2022-09-06T08:34:09;100393.31;;;22.54;55.33
74218;BME280;62579;47.288;18.646;2022-09-06T08:36:36;100395.75;;;22.99;53.96
74218;BME280;62579;47.288;18.646;2022-09-06T08:39:03;100390.25;;;22.92;54.94
74218;BME280;62579;47.288;18.646;2022-09-06T08:41:30;100391.59;;;23.08;55.07
74218;BME280;62579;47.288;18.646;2022-09-06T08:43:58;100399.53;;;23.11;53.86
74218;BME280;62579;47.288;18.646;2022-09-06T08:46:41;100400.09;;;23.27;53.05
74218;BME280;62579;47.288;18.646;2022-09-06T08:49:10;100392.09;;;23.31;52.72
74218;BME280;62579;47.288;18.646;2022-09-06T08:51:43;100403.84;;;23.22;53.34
74218;BME280;62579;47.288;18.646;2022-09-06T08:59:39;100386.72;;;23.50;53.08
74218;BME280;62579;47.288;18.646;2022-09-06T09:02:09;100390.41;;;23.53;53.01
74218;BME280;62579;47.288;18.646;2022-09-06T09:04:35;100386.22;;;23.61;52.71
74218;BME280;62579;47.288;18.646;2022-09-06T09:07:06;100377.69;;;23.76;51.80
74218;BME280;62579;47.288;18.646;2022-09-06T09:09:36;100379.31;;;23.79;51.80
74218;BME280;62579;47.288;18.646;2022-09-06T09:12:01;100381.78;;;23.75;52.80
74218;BME280;62579;47.288;18.646;2022-09-06T09:14:28;100377.13;;;24.05;51.81
74218;BME280;62579;47.288;18.646;2022-09-06T09:16:58;100373.63;;;24.04;52.48
74218;BME280;62579;47.288;18.646;2022-09-06T09:19:26;100373.16;;;23.98;51.80
74218;BME280;62579;47.288;18.646;2022-09-06T09:21:51;100362.69;;;23.89;51.31
74218;BME280;62579;47.288;18.646;2022-09-06T09:24:16;100357.19;;;24.25;50.72
74218;BME280;62579;47.288;18.646;2022-09-06T09:26:49;100354.31;;;24.42;50.92
74218;BME280;62579;47.288;18.646;2022-09-06T09:29:15;100357.34;;;24.27;50.87
74218;BME280;62579;47.288;18.646;2022-09-06T09:34:10;100345.53;;;24.36;50.61
74218;BME280;62579;47.288;18.646;2022-09-06T09:36:35;100339.31;;;24.19;50.03
74218;BME280;62579;47.288;18.646;2022-09-06T09:39:03;100335.22;;;24.66;52.07
74218;BME280;62579;47.288;18.646;2022-09-06T09:41:32;100335.41;;;24.96;50.78
74218;BME280;62579;47.288;18.646;2022-09-06T09:44:02;100328.09;;;25.11;49.40
74218;BME280;62579;47.288;18.646;2022-09-06T09:46:32;100330.44;;;25.14;49.37
74218;BME280;62579;47.288;18.646;2022-09-06T09:49:03;100328.09;;;25.30;48.52
74218;BME280;62579;47.288;18.646;2022-09-06T09:51:29;100327.50;;;25.31;48.93
74218;BME280;62579;47.288;18.646;2022-09-06T09:53:55;100330.28;;;25.12;48.88
74218;BME280;62579;47.288;18.646;2022-09-06T09:56:25;100319.00;;;25.10;49.10
74218;BME280;62579;47.288;18.646;2022-09-06T09:58:51;100313.09;;;25.44;49.52
74218;BME280;62579;47.288;18.646;2022-09-06T10:01:19;100312.53;;;25.55;48.33
74218;BME280;62579;47.288;18.646;2022-09-06T10:03:45;100308.44;;;25.47;49.01
74218;BME280;62579;47.288;18.646;2022-09-06T10:06:11;100303.56;;;25.66;48.17
74218;BME280;62579;47.288;18.646;2022-09-06T10:08:38;100298.97;;;25.71;49.05
74218;BME280;62579;47.288;18.646;2022-09-06T10:11:04;100296.03;;;25.79;49.29
74218;BME280;62579;47.288;18.646;2022-09-06T10:13:29;100302.69;;;26.04;48.62
74218;BME280;62579;47.288;18.646;2022-09-06T10:15:55;100295.56;;;26.22;47.78
74218;BME280;62579;47.288;18.646;2022-09-06T10:18:32;100299.72;;;26.21;47.33
74218;BME280;62579;47.288;18.646;2022-09-06T10:21:04;100292.62;;;26.30;45.87
74218;BME280;62579;47.288;18.646;2022-09-06T10:29:03;100283.97;;;25.86;46.39
74218;BME280;62579;47.288;18.646;2022-09-06T10:36:38;100263.13;;;26.69;46.93
74218;BME280;62579;47.288;18.646;2022-09-06T10:46:56;100257.41;;;26.67;44.52
74218;BME280;62579;47.288;18.646;2022-09-06T10:49:25;100254.47;;;26.65;45.24
74218;BME280;62579;47.288;18.646;2022-09-06T10:51:56;100256.06;;;26.90;44.28
74218;BME280;62579;47.288;18.646;2022-09-06T10:54:22;100256.03;;;26.78;43.84
74218;BME280;62579;47.288;18.646;2022-09-06T10:56:52;100263.25;;;26.71;45.41
74218;BME280;62579;47.288;18.646;2022-09-06T10:59:32;100266.56;;;26.37;44.37
74218;BME280;62579;47.288;18.646;2022-09-06T18:45:49;100111.03;;;20.87;77.37
74218;BME280;62579;47.288;18.646;2022-09-06T18:48:15;100108.63;;;20.91;77.60
74218;BME280;62579;47.288;18.646;2022-09-06T18:50:40;100104.97;;;20.88;77.68
74218;BME280;62579;47.288;18.646;2022-09-06T18:53:06;100104.75;;;20.94;76.68
74218;BME280;62579;47.288;18.646;2022-09-06T18:55:37;100112.84;;;21.00;76.51
74218;BME280;62579;47.288;18.646;2022-09-06T18:58:04;100113.34;;;21.06;76.40
74218;BME280;62579;47.288;18.646;2022-09-06T19:00:30;100113.72;;;21.10;75.66
74218;BME280;62579;47.288;18.646;2022-09-06T19:02:55;100110.22;;;21.09;76.03
74218;BME280;62579;47.288;18.646;2022-09-06T19:05:20;100122.78;;;21.03;76.18
74218;BME280;62579;47.288;18.646;2022-09-06T19:07:45;100114.50;;;20.95;76.95
74218;BME280;62579;47.288;18.646;2022-09-06T19:10:11;100123.97;;;20.84;77.68
74218;BME280;62579;47.288;18.646;2022-09-06T19:12:36;100116.81;;;20.74;78.33
74218;BME280;62579;47.288;18.646;2022-09-06T19:15:01;100125.53;;;20.70;77.84
74218;BME280;62579;47.288;18.646;2022-09-06T19:17:26;100127.75;;;20.64;77.80
74218;BME280;62579;47.288;18.646;2022-09-06T19:19:51;100124.25;;;20.64;77.52
74218;BME280;62579;47.288;18.646;2022-09-06T19:22:17;100127.38;;;20.60;77.56
74218;BME280;62579;47.288;18.646;2022-09-06T19:24:42;100118.19;;;20.65;77.00
74218;BME280;62579;47.288;18.646;2022-09-06T19:27:08;100115.16;;;20.71;76.98
74218;BME280;62579;47.288;18.646;2022-09-06T19:29:34;100117.22;;;20.70;76.75
74218;BME280;62579;47.288;18.646;2022-09-06T19:31:59;100105.97;;;20.76;76.00
74218;BME280;62579;47.288;18.646;2022-09-06T19:36:57;100102.44;;;20.75;76.68
74218;BME280;62579;47.288;18.646;2022-09-06T19:39:23;100107.50;;;20.62;77.75
74218;BME280;62579;47.288;18.646;2022-09-06T19:41:52;100111.94;;;20.57;76.67
74218;BME280;62579;47.288;18.646;2022-09-06T19:44:17;100111.19;;;20.57;77.31
74218;BME280;62579;47.288;18.646;2022-09-06T19:46:44;100117.12;;;20.46;78.27
74218;BME280;62579;47.288;18.646;2022-09-06T19:49:10;100110.72;;;20.35;78.80
74218;BME280;62579;47.288;18.646;2022-09-06T19:51:35;100108.69;;;20.36;78.84
74218;BME280;62579;47.288;18.646;2022-09-06T19:54:01;100113.84;;;20.40;78.37
74218;BME280;62579;47.288;18.646;2022-09-06T19:56:27;100108.31;;;20.40;78.29
74218;BME280;62579;47.288;18.646;2022-09-06T19:58:59;100104.78;;;20.39;77.99
74218;BME280;62579;47.288;18.646;2022-09-06T20:01:25;100097.44;;;20.34;78.19
74218;BME280;62579;47.288;18.646;2022-09-06T20:22:05;100083.72;;;19.81;79.73
74218;BME280;62579;47.288;18.646;2022-09-06T20:24:30;100086.12;;;19.77;79.92
74218;BME280;62579;47.288;18.646;2022-09-06T20:26:55;100096.25;;;19.74;80.10
74218;BME280;62579;47.288;18.646;2022-09-06T20:29:20;100096.81;;;19.65;80.44
74218;BME280;62579;47.288;18.646;2022-09-06T20:31:45;100087.25;;;19.59;80.67
74218;BME280;62579;47.288;18.646;2022-09-06T20:34:17;100091.28;;;19.58;80.33
74218;BME280;62579;47.288;18.646;2022-09-06T20:36:42;100091.09;;;19.56;80.87
74218;BME280;62579;47.288;18.646;2022-09-06T20:39:07;100090.19;;;19.53;80.50
74218;BME280;62579;47.288;18.646;2022-09-06T20:41:34;100093.31;;;19.57;80.14
74218;BME280;62579;47.288;18.646;2022-09-06T20:43:59;100085.97;;;19.52;80.52
74218;BME280;62579;47.288;18.646;2022-09-06T20:46:25;100095.16;;;19.55;79.95
74218;BME280;62579;47.288;18.646;2022-09-06T20:51:23;100101.06;;;19.51;80.20
74218;BME280;62579;47.288;18.646;2022-09-06T20:53:53;100094.25;;;19.52;80.00
74218;BME280;62579;47.288;18.646;2022-09-06T20:56:20;100089.66;;;19.55;80.08
74218;BME280;62579;47.288;18.646;2022-09-06T20:58:49;100096.81;;;19.58;80.00
74218;BME280;62579;47.288;18.646;2022-09-06T21:01:16;100100.66;;;19.47;79.94
74218;BME280;62579;47.288;18.646;2022-09-06T21:03:46;100103.03;;;19.36;80.82
74218;BME280;62579;47.288;18.646;2022-09-06T21:06:11;100098.97;;;19.29;80.75
74218;BME280;62579;47.288;18.646;2022-09-06T21:08:37;100090.69;;;19.22;81.19
74218;BME280;62579;47.288;18.646;2022-09-06T21:11:03;100095.28;;;19.19;81.36
74218;BME280;62579;47.288;18.646;2022-09-06T21:13:29;100089.22;;;19.13;81.72
74218;BME280;62579;47.288;18.646;2022-09-06T21:15:55;100084.25;;;19.11;81.81
74218;BME280;62579;47.288;18.646;2022-09-06T21:18:21;100085.53;;;19.10;81.83
74218;BME280;62579;47.288;18.646;2022-09-06T21:21:20;100086.25;;;19.11;81.17
74218;BME280;62579;47.288;18.646;2022-09-06T21:23:38;100088.09;;;19.08;81.68
74218;BME280;62579;47.288;18.646;2022-09-06T21:26:07;100094.31;;;19.01;81.62
74218;BME280;62579;47.288;18.646;2022-09-06T21:28:34;100101.50;;;18.97;81.87
74218;BME280;62579;47.288;18.646;2022-09-06T21:31:01;100087.16;;;18.98;81.62
74218;BME280;62579;47.288;18.646;2022-09-06T21:33:27;100082.38;;;18.99;81.73
74218;BME280;62579;47.288;18.646;2022-09-06T21:35:56;100085.50;;;18.95;82.06
74218;BME280;62579;47.288;18.646;2022-09-06T21:38:21;100084.19;;;18.89;82.25
74218;BME280;62579;47.288;18.646;2022-09-06T21:40:46;100080.34;;;18.92;81.88
74218;BME280;62579;47.288;18.646;2022-09-06T21:43:12;100079.25;;;18.87;81.74
74218;BME280;62579;47.288;18.646;2022-09-06T21:45:37;100080.91;;;18.90;82.15
74218;BME280;62579;47.288;18.646;2022-09-06T21:48:02;100075.75;;;18.87;81.87
74218;BME280;62579;47.288;18.646;2022-09-06T21:50:28;100071.31;;;18.84;81.37
74218;BME280;62579;47.288;18.646;2022-09-06T21:52:56;100071.31;;;18.84;81.60
74218;BME280;62579;47.288;18.646;2022-09-06T21:55:21;100075.91;;;18.81;82.06
74218;BME280;62579;47.288;18.646;2022-09-06T21:57:46;100075.16;;;18.81;81.47
74218;BME280;62579;47.288;18.646;2022-09-06T22:00:11;100083.25;;;18.79;82.02
74218;BME280;62579;47.288;18.646;2022-09-06T22:02:37;100085.81;;;18.77;81.78